Time;durP1;ratioP1;P1;durP2;ratioP2;P2;SDS_P1;SDS_P2;PMS_P1;PMS_P2;Temp;Humidity;BMP_temperature;BMP_pressure;BME280_temperature;BME280_humidity;BME280_pressure;Samples;Min_cycle;Max_cycle;Signal;HPM_P1;HPM_P2
2022/08/14 00:00:19;;;;;;;6.32;5.43;;;;;;;;;;4975203;28;20058;-78
2022/08/14 00:02:46;;;;;;;7.90;5.13;;;;;;;;;;4975727;28;20026;-77
2022/08/14 00:05:15;;;;;;;7.95;5.70;;;;;;;;;;4982274;28;20023;-78
2022/08/14 00:07:41;;;;;;;8.35;5.68;;;;;;;;;;4968802;28;20031;-79
2022/08/14 00:10:08;;;;;;;11.55;6.00;;;;;;;;;;4974981;28;20486;-78
2022/08/14 00:12:37;;;;;;;8.43;5.05;;;;;;;;;;4973810;28;20033;-78
2022/08/14 00:15:05;;;;;;;7.22;5.35;;;;;;;;;;4980483;28;20031;-79
2022/08/14 00:17:31;;;;;;;7.93;5.57;;;;;;;;;;4974335;28;20034;-78
2022/08/14 00:19:57;;;;;;;6.85;5.10;;;;;;;;;;4975664;28;20375;-78
2022/08/14 00:22:23;;;;;;;9.48;6.05;;;;;;;;;;4978405;28;20033;-77
2022/08/14 00:24:49;;;;;;;8.45;5.95;;;;;;;;;;4984623;28;20037;-77
2022/08/14 00:27:15;;;;;;;9.00;5.50;;;;;;;;;;4973364;28;20034;-78
2022/08/14 00:29:42;;;;;;;9.70;6.32;;;;;;;;;;4977154;28;20026;-78
2022/08/14 00:32:08;;;;;;;9.10;5.68;;;;;;;;;;4967331;28;20505;-78
2022/08/14 00:34:34;;;;;;;7.45;5.20;;;;;;;;;;4968348;28;20055;-78
2022/08/14 00:37:00;;;;;;;9.02;6.00;;;;;;;;;;4971779;28;20053;-77
2022/08/14 00:39:26;;;;;;;8.60;5.82;;;;;;;;;;4967161;28;20050;-77
2022/08/14 00:41:52;;;;;;;8.00;5.93;;;;;;;;;;4975299;28;20279;-77
2022/08/14 00:44:19;;;;;;;10.90;5.95;;;;;;;;;;4973795;28;20110;-77
2022/08/14 00:46:45;;;;;;;12.70;6.93;;;;;;;;;;4969764;28;20481;-77
2022/08/14 00:49:11;;;;;;;9.40;6.00;;;;;;;;;;4966875;28;20030;-78
2022/08/14 00:51:38;;;;;;;10.25;5.63;;;;;;;;;;4970274;28;20118;-78
2022/08/14 00:54:05;;;;;;;8.57;5.85;;;;;;;;;;4975300;28;20026;-77
2022/08/14 00:56:31;;;;;;;10.45;6.07;;;;;;;;;;4963717;28;20034;-77
2022/08/14 00:58:59;;;;;;;8.27;6.50;;;;;;;;;;4977560;28;20023;-78
2022/08/14 01:01:25;;;;;;;8.05;5.00;;;;;;;;;;4971638;28;20417;-77
2022/08/14 01:03:52;;;;;;;5.88;5.20;;;;;;;;;;4966506;28;20035;-79
2022/08/14 01:06:18;;;;;;;9.15;6.00;;;;;;;;;;4970585;28;20086;-79
2022/08/14 01:08:45;;;;;;;7.78;5.28;;;;;;;;;;4975052;28;20027;-77
2022/08/14 01:11:15;;;;;;;6.35;5.22;;;;;;;;;;4974442;28;20600;-77
2022/08/14 01:13:42;;;;;;;7.78;5.63;;;;;;;;;;4975549;28;20038;-78
2022/08/14 01:16:09;;;;;;;8.27;5.13;;;;;;;;;;4967622;28;20124;-77
2022/08/14 01:21:24;;;;;;;8.30;5.15;;;;;;;;;;4975144;28;20878;-76
2022/08/14 01:23:52;;;;;;;9.00;5.05;;;;;;;;;;4968121;28;20031;-77
2022/08/14 01:26:21;;;;;;;10.05;5.78;;;;;;;;;;4966232;28;20039;-77
2022/08/14 01:28:48;;;;;;;6.65;5.10;;;;;;;;;;4962224;28;20651;-77
2022/08/14 01:31:16;;;;;;;9.77;5.03;;;;;;;;;;4970944;28;20499;-77
2022/08/14 01:33:49;;;;;;;7.45;5.30;;;;;;;;;;4970041;28;20551;-76
2022/08/14 01:36:15;;;;;;;7.18;5.57;;;;;;;;;;4968982;28;20177;-76
2022/08/14 01:38:42;;;;;;;8.43;5.57;;;;;;;;;;4969302;28;20515;-77
2022/08/14 01:41:10;;;;;;;7.82;5.20;;;;;;;;;;4969059;28;20034;-77
2022/08/14 01:43:49;;;;;;;9.52;5.13;;;;;;;;;;4965971;28;20054;-77
2022/08/14 01:46:19;;;;;;;9.15;5.65;;;;;;;;;;4984026;28;20027;-77
2022/08/14 01:48:45;;;;;;;6.30;5.50;;;;;;;;;;4964697;28;20090;-77
2022/08/14 01:51:13;;;;;;;9.15;5.55;;;;;;;;;;4970587;28;20326;-77
2022/08/14 01:53:39;;;;;;;7.18;6.32;;;;;;;;;;4975609;28;20112;-77
2022/08/14 01:56:06;;;;;;;8.48;5.68;;;;;;;;;;4973845;28;20019;-77
2022/08/14 01:58:32;;;;;;;5.60;4.82;;;;;;;;;;4972280;28;20528;-77
2022/08/14 02:00:58;;;;;;;7.38;5.07;;;;;;;;;;4980245;28;20481;-77
2022/08/14 02:03:27;;;;;;;7.57;5.20;;;;;;;;;;4979515;28;20045;-76
2022/08/14 02:05:57;;;;;;;9.45;5.53;;;;;;;;;;4968864;28;20089;-77
2022/08/14 02:08:29;;;;;;;10.98;5.88;;;;;;;;;;4972896;28;20126;-76
2022/08/14 02:11:15;;;;;;;5.72;5.13;;;;;;;;;;4968696;28;20125;-77
2022/08/14 02:13:42;;;;;;;6.25;5.00;;;;;;;;;;4970842;28;20039;-77
2022/08/14 02:16:09;;;;;;;9.30;5.60;;;;;;;;;;4971006;28;20452;-77
2022/08/14 02:18:35;;;;;;;7.97;6.55;;;;;;;;;;4960748;28;20020;-76
2022/08/14 02:21:03;;;;;;;7.25;6.53;;;;;;;;;;4977477;28;20035;-76
2022/08/14 02:23:29;;;;;;;8.40;5.82;;;;;;;;;;4977512;28;20023;-76
2022/08/14 02:25:55;;;;;;;6.63;5.63;;;;;;;;;;4971577;28;20035;-77
2022/08/14 02:28:22;;;;;;;8.65;5.53;;;;;;;;;;4976279;28;20018;-77
2022/08/14 02:30:48;;;;;;;7.30;5.32;;;;;;;;;;4976746;28;20485;-76
2022/08/14 02:33:14;;;;;;;6.32;5.13;;;;;;;;;;4970703;28;20027;-77
2022/08/14 02:35:42;;;;;;;6.70;5.53;;;;;;;;;;4983638;28;20276;-77
2022/08/14 02:38:08;;;;;;;7.30;5.30;;;;;;;;;;4964806;28;20033;-76
2022/08/14 02:40:36;;;;;;;9.77;5.95;;;;;;;;;;4962994;28;20023;-77
2022/08/14 02:43:03;;;;;;;6.85;5.93;;;;;;;;;;4969646;28;20074;-77
2022/08/14 02:45:32;;;;;;;7.88;5.95;;;;;;;;;;4967363;28;20592;-77
2022/08/14 02:47:58;;;;;;;7.60;5.78;;;;;;;;;;4966300;28;20039;-77
2022/08/14 02:50:24;;;;;;;7.95;6.10;;;;;;;;;;4973433;28;20022;-76
2022/08/14 02:52:53;;;;;;;7.85;5.63;;;;;;;;;;4973153;28;20524;-77
2022/08/14 02:55:19;;;;;;;6.82;5.30;;;;;;;;;;4974384;28;20041;-76
2022/08/14 02:57:46;;;;;;;7.40;5.55;;;;;;;;;;4975901;28;20023;-76
2022/08/14 03:00:12;;;;;;;6.45;5.50;;;;;;;;;;4972688;28;20034;-77
2022/08/14 03:02:41;;;;;;;7.97;5.47;;;;;;;;;;4973651;28;20038;-76
2022/08/14 03:05:07;;;;;;;9.88;5.90;;;;;;;;;;4969408;28;20061;-78
2022/08/14 03:07:33;;;;;;;6.13;5.50;;;;;;;;;;4967726;28;20058;-78
2022/08/14 03:10:00;;;;;;;7.32;5.40;;;;;;;;;;4969937;28;20039;-77
2022/08/14 03:12:26;;;;;;;7.70;5.40;;;;;;;;;;4965230;28;20053;-77
2022/08/14 03:14:52;;;;;;;9.13;6.03;;;;;;;;;;4967740;28;20015;-77
2022/08/14 03:17:18;;;;;;;8.10;6.28;;;;;;;;;;4972111;28;20055;-77
2022/08/14 03:19:44;;;;;;;7.47;5.80;;;;;;;;;;4973303;28;20026;-77
2022/08/14 03:22:12;;;;;;;10.65;6.47;;;;;;;;;;4973759;28;20110;-76
2022/08/14 03:24:38;;;;;;;6.13;5.53;;;;;;;;;;4970683;28;20513;-77
2022/08/14 03:27:04;;;;;;;7.90;5.63;;;;;;;;;;4977907;28;20035;-77
2022/08/14 03:29:31;;;;;;;9.38;7.10;;;;;;;;;;4975651;28;20408;-77
2022/08/14 03:31:58;;;;;;;6.82;6.05;;;;;;;;;;4987692;28;20062;-77
2022/08/14 03:34:26;;;;;;;8.77;6.85;;;;;;;;;;4972181;28;20128;-76
2022/08/14 03:36:55;;;;;;;10.18;6.03;;;;;;;;;;4970071;28;20026;-77
2022/08/14 03:39:22;;;;;;;10.32;6.97;;;;;;;;;;4981019;28;20371;-77
2022/08/14 03:41:51;;;;;;;10.18;6.65;;;;;;;;;;4976534;28;20037;-76
2022/08/14 03:44:18;;;;;;;11.23;6.90;;;;;;;;;;4976287;28;20027;-77
2022/08/14 03:46:44;;;;;;;9.73;7.47;;;;;;;;;;4974515;28;20031;-76
2022/08/14 03:49:10;;;;;;;9.75;6.82;;;;;;;;;;4974868;28;20447;-76
2022/08/14 03:51:36;;;;;;;11.27;7.32;;;;;;;;;;4970316;28;20066;-77
2022/08/14 03:54:07;;;;;;;9.95;7.15;;;;;;;;;;4974445;28;20258;-76
2022/08/14 03:56:35;;;;;;;10.82;7.10;;;;;;;;;;4976405;28;20106;-77
2022/08/14 03:59:04;;;;;;;12.65;7.93;;;;;;;;;;4968873;28;20022;-78
2022/08/14 04:01:30;;;;;;;8.35;7.13;;;;;;;;;;4975891;28;20040;-76
2022/08/14 04:03:58;;;;;;;9.75;7.03;;;;;;;;;;4971839;28;20041;-77
2022/08/14 04:06:24;;;;;;;12.13;8.25;;;;;;;;;;4978787;28;20050;-76
2022/08/14 04:08:52;;;;;;;12.93;8.45;;;;;;;;;;4976983;28;20425;-77
2022/08/14 04:11:18;;;;;;;10.00;7.78;;;;;;;;;;4979857;28;20090;-76
2022/08/14 04:13:45;;;;;;;10.60;7.53;;;;;;;;;;4971821;28;20085;-76
2022/08/14 04:16:13;;;;;;;11.13;8.32;;;;;;;;;;4970266;28;20117;-76
2022/08/14 04:18:40;;;;;;;9.70;7.75;;;;;;;;;;4973887;28;20118;-75
2022/08/14 04:21:07;;;;;;;10.57;7.47;;;;;;;;;;4970547;28;20085;-77
2022/08/14 04:23:34;;;;;;;9.73;7.00;;;;;;;;;;4969348;28;20054;-77
2022/08/14 04:26:01;;;;;;;9.40;7.25;;;;;;;;;;4970970;28;20027;-76
2022/08/14 04:28:27;;;;;;;8.77;6.65;;;;;;;;;;4981070;28;20037;-77
2022/08/14 04:30:53;;;;;;;9.20;7.05;;;;;;;;;;4979183;28;20116;-77
2022/08/14 04:33:23;;;;;;;11.27;8.23;;;;;;;;;;4975600;28;20114;-76
2022/08/14 04:35:50;;;;;;;9.38;7.07;;;;;;;;;;4969650;28;20023;-77
2022/08/14 04:43:46;;;;;;;9.73;7.73;;;;;;;;;;4973520;28;20046;-77
2022/08/14 04:46:16;;;;;;;11.48;7.60;;;;;;;;;;4970075;28;20633;-76
2022/08/14 04:48:47;;;;;;;10.50;6.88;;;;;;;;;;4974212;28;20023;-77
2022/08/14 04:51:14;;;;;;;8.88;7.32;;;;;;;;;;4972618;28;20027;-76
2022/08/14 04:53:42;;;;;;;8.60;7.13;;;;;;;;;;4964657;28;20023;-77
2022/08/14 04:56:12;;;;;;;10.45;7.72;;;;;;;;;;4976617;28;20042;-77
2022/08/14 04:58:38;;;;;;;8.77;7.03;;;;;;;;;;4967479;28;20497;-77
2022/08/14 05:01:06;;;;;;;12.55;7.82;;;;;;;;;;4972632;28;20054;-77
2022/08/14 05:03:34;;;;;;;11.13;7.80;;;;;;;;;;4970454;28;20026;-76
2022/08/14 05:06:02;;;;;;;9.80;7.25;;;;;;;;;;4965529;28;20043;-76
2022/08/14 05:08:29;;;;;;;11.25;8.13;;;;;;;;;;4977717;28;20046;-77
2022/08/14 05:10:56;;;;;;;8.73;7.53;;;;;;;;;;4972325;28;20049;-76
2022/08/14 05:13:23;;;;;;;9.15;7.47;;;;;;;;;;4971537;28;20396;-76
2022/08/14 05:15:51;;;;;;;10.77;7.75;;;;;;;;;;4974939;28;20022;-76
2022/08/14 05:18:30;;;;;;;12.05;8.32;;;;;;;;;;4973847;28;20089;-77
2022/08/14 05:20:56;;;;;;;10.10;7.95;;;;;;;;;;4964533;28;20130;-77
2022/08/14 05:23:27;;;;;;;10.40;7.50;;;;;;;;;;4969773;28;20524;-77
2022/08/14 05:25:55;;;;;;;10.70;7.65;;;;;;;;;;4968876;28;20372;-76
2022/08/14 05:28:22;;;;;;;11.45;7.85;;;;;;;;;;4970939;28;20031;-76
2022/08/14 05:30:52;;;;;;;8.65;7.32;;;;;;;;;;4970199;28;20031;-77
2022/08/14 05:33:19;;;;;;;11.65;8.48;;;;;;;;;;4967010;28;20493;-77
2022/08/14 05:35:46;;;;;;;10.80;8.10;;;;;;;;;;4968526;28;20031;-77
2022/08/14 05:38:15;;;;;;;12.60;8.43;;;;;;;;;;4967844;28;20027;-76
2022/08/14 05:40:42;;;;;;;10.43;8.10;;;;;;;;;;4980383;28;20502;-76
2022/08/14 05:43:08;;;;;;;12.43;8.50;;;;;;;;;;4976750;28;20042;-77
2022/08/14 05:45:34;;;;;;;11.73;8.70;;;;;;;;;;4966340;28;20122;-77
2022/08/14 05:48:01;;;;;;;10.38;8.10;;;;;;;;;;4970381;28;20061;-77
2022/08/14 05:50:28;;;;;;;12.23;9.20;;;;;;;;;;4968117;28;20497;-77
2022/08/14 05:52:54;;;;;;;12.60;9.38;;;;;;;;;;4971466;28;20409;-77
2022/08/14 05:55:20;;;;;;;12.02;8.57;;;;;;;;;;4972150;28;20023;-77
2022/08/14 05:57:47;;;;;;;13.25;8.60;;;;;;;;;;4978781;28;20245;-76
2022/08/14 06:00:14;;;;;;;11.82;9.15;;;;;;;;;;4974105;28;20486;-75
2022/08/14 06:02:40;;;;;;;13.60;8.70;;;;;;;;;;4965430;28;20038;-76
2022/08/14 06:05:06;;;;;;;12.30;8.70;;;;;;;;;;4966004;28;20109;-76
2022/08/14 06:07:35;;;;;;;12.18;8.73;;;;;;;;;;4968016;28;20102;-77
2022/08/14 06:10:01;;;;;;;10.10;8.60;;;;;;;;;;4975427;28;20041;-77
2022/08/14 06:12:27;;;;;;;9.77;8.00;;;;;;;;;;4962862;28;20027;-76
2022/08/14 06:14:53;;;;;;;10.02;7.88;;;;;;;;;;4972838;28;20030;-76
2022/08/14 06:17:19;;;;;;;11.25;9.45;;;;;;;;;;4963923;28;20046;-76
2022/08/14 06:19:45;;;;;;;11.45;8.38;;;;;;;;;;4970680;28;20426;-77
2022/08/14 06:22:11;;;;;;;11.23;9.00;;;;;;;;;;4963782;28;20027;-77
2022/08/14 06:24:37;;;;;;;10.63;8.25;;;;;;;;;;4971128;28;20102;-77
2022/08/14 06:27:04;;;;;;;8.93;7.90;;;;;;;;;;4969683;28;20077;-78
2022/08/14 06:29:30;;;;;;;13.07;8.63;;;;;;;;;;4969259;28;20030;-77
2022/08/14 06:31:57;;;;;;;13.07;8.68;;;;;;;;;;4964422;28;20038;-77
2022/08/14 06:34:23;;;;;;;11.30;8.18;;;;;;;;;;4978271;28;20026;-77
2022/08/14 06:36:49;;;;;;;12.25;8.50;;;;;;;;;;4973664;28;20444;-77
2022/08/14 06:39:15;;;;;;;10.10;8.63;;;;;;;;;;4973735;28;20065;-76
2022/08/14 06:41:41;;;;;;;11.45;7.70;;;;;;;;;;4966351;28;20421;-77
2022/08/14 06:44:10;;;;;;;10.25;7.75;;;;;;;;;;4970373;28;20117;-76
2022/08/14 06:46:37;;;;;;;10.35;7.78;;;;;;;;;;4965088;28;20089;-76
2022/08/14 06:49:03;;;;;;;12.48;8.52;;;;;;;;;;4968497;28;20030;-77
2022/08/14 06:51:29;;;;;;;10.68;7.55;;;;;;;;;;4966090;28;20440;-76
2022/08/14 06:53:55;;;;;;;10.32;7.75;;;;;;;;;;4966070;28;20056;-77
2022/08/14 06:56:22;;;;;;;10.63;7.30;;;;;;;;;;4971529;28;20461;-76
2022/08/14 06:58:48;;;;;;;13.80;7.35;;;;;;;;;;4979394;28;20053;-77
2022/08/14 07:06:44;;;;;;;8.02;7.03;;;;;;;;;;4978872;28;20588;-77
2022/08/14 07:09:10;;;;;;;8.23;7.00;;;;;;;;;;4975407;28;20062;-77
2022/08/14 07:11:37;;;;;;;8.77;7.22;;;;;;;;;;4983723;28;20374;-76
2022/08/14 07:14:03;;;;;;;8.00;6.95;;;;;;;;;;4974450;28;20039;-77
2022/08/14 07:16:30;;;;;;;8.35;6.50;;;;;;;;;;4980675;28;20026;-77
2022/08/14 07:18:56;;;;;;;8.73;6.38;;;;;;;;;;4984696;28;20023;-76
2022/08/14 07:21:24;;;;;;;9.52;6.32;;;;;;;;;;4980372;28;20113;-77
2022/08/14 07:23:50;;;;;;;10.35;7.40;;;;;;;;;;4973879;28;20027;-77
2022/08/14 07:26:16;;;;;;;7.30;6.55;;;;;;;;;;4977047;28;20517;-78
2022/08/14 07:28:42;;;;;;;7.85;6.35;;;;;;;;;;4984171;28;20393;-77
2022/08/14 07:31:09;;;;;;;9.02;6.55;;;;;;;;;;4978835;28;20070;-78
2022/08/14 07:33:35;;;;;;;7.80;6.03;;;;;;;;;;4975916;28;20488;-77
2022/08/14 07:36:03;;;;;;;8.23;6.38;;;;;;;;;;4976575;28;20026;-77
2022/08/14 07:38:29;;;;;;;8.20;6.43;;;;;;;;;;4984075;28;20038;-76
2022/08/14 07:40:56;;;;;;;7.93;6.15;;;;;;;;;;4981132;28;20030;-76
2022/08/14 07:43:22;;;;;;;8.52;6.90;;;;;;;;;;4980345;28;20026;-76
2022/08/14 07:45:52;;;;;;;7.00;5.50;;;;;;;;;;4977672;28;20110;-76
2022/08/14 07:48:19;;;;;;;7.22;6.07;;;;;;;;;;4975706;28;20130;-76
2022/08/14 07:50:45;;;;;;;7.82;6.55;;;;;;;;;;4990354;28;20597;-76
2022/08/14 07:53:14;;;;;;;12.70;6.25;;;;;;;;;;4984248;28;20034;-76
2022/08/14 07:55:41;;;;;;;6.88;5.68;;;;;;;;;;4986401;28;20023;-77
2022/08/14 07:58:08;;;;;;;8.85;6.35;;;;;;;;;;4987967;28;20140;-76
2022/08/14 08:00:34;;;;;;;11.05;6.00;;;;;;;;;;4977259;28;20114;-77
2022/08/14 08:03:01;;;;;;;10.02;6.30;;;;;;;;;;4981499;28;20022;-77
2022/08/14 08:05:27;;;;;;;7.32;6.13;;;;;;;;;;4977994;28;20030;-76
2022/08/14 08:07:54;;;;;;;7.72;6.03;;;;;;;;;;4970684;28;20047;-76
2022/08/14 08:10:30;;;;;;;7.80;5.82;;;;;;;;;;4969143;28;20038;-77
2022/08/14 08:12:57;;;;;;;7.30;5.40;;;;;;;;;;4973163;28;20061;-77
2022/08/14 08:15:24;;;;;;;8.40;5.80;;;;;;;;;;4985948;28;20033;-77
2022/08/14 08:17:51;;;;;;;9.00;6.07;;;;;;;;;;4971077;28;20023;-77
2022/08/14 08:20:18;;;;;;;8.80;6.25;;;;;;;;;;4974811;28;20030;-77
2022/08/14 08:22:45;;;;;;;7.78;5.82;;;;;;;;;;4973689;28;20038;-76
2022/08/14 08:25:11;;;;;;;8.95;6.10;;;;;;;;;;4973347;28;20433;-77
2022/08/14 08:27:38;;;;;;;6.47;5.38;;;;;;;;;;4972789;28;20029;-76
2022/08/14 08:30:08;;;;;;;7.93;5.55;;;;;;;;;;4983209;28;20018;-77
2022/08/14 08:32:44;;;;;;;6.15;5.22;;;;;;;;;;4975559;28;20085;-76
2022/08/14 08:35:20;;;;;;;6.95;5.40;;;;;;;;;;4972280;28;20015;-76
2022/08/14 08:37:47;;;;;;;7.68;6.05;;;;;;;;;;4981304;28;20031;-76
2022/08/14 08:40:30;;;;;;;7.60;5.00;;;;;;;;;;4986077;28;20027;-77
2022/08/14 08:42:56;;;;;;;6.70;5.45;;;;;;;;;;4977691;28;20026;-77
2022/08/14 08:45:23;;;;;;;11.18;5.68;;;;;;;;;;4970935;28;20552;-77
2022/08/14 08:47:50;;;;;;;6.20;4.88;;;;;;;;;;4973288;28;20030;-76
2022/08/14 08:50:21;;;;;;;7.68;5.03;;;;;;;;;;4973145;28;20363;-76
2022/08/14 08:52:49;;;;;;;9.82;5.95;;;;;;;;;;4974703;28;20026;-77
2022/08/14 08:55:15;;;;;;;6.60;4.78;;;;;;;;;;4974763;28;20022;-78
2022/08/14 08:57:41;;;;;;;7.88;5.57;;;;;;;;;;4976724;28;20019;-79
2022/08/14 09:00:17;;;;;;;6.47;5.20;;;;;;;;;;4973582;28;20446;-79
2022/08/14 09:02:54;;;;;;;8.60;5.03;;;;;;;;;;4972750;28;20019;-77
2022/08/14 09:05:20;;;;;;;7.53;5.22;;;;;;;;;;4970533;28;20041;-79
2022/08/14 09:07:46;;;;;;;9.38;5.93;;;;;;;;;;4972322;28;20031;-78
2022/08/14 09:10:12;;;;;;;6.57;4.95;;;;;;;;;;4977193;28;20031;-78
2022/08/14 09:12:38;;;;;;;8.93;5.55;;;;;;;;;;4980602;28;20402;-78
2022/08/14 09:15:06;;;;;;;7.78;5.05;;;;;;;;;;4982167;28;20027;-78
2022/08/14 09:17:32;;;;;;;8.07;5.68;;;;;;;;;;4985135;28;20019;-78
2022/08/14 09:19:59;;;;;;;7.78;5.15;;;;;;;;;;4980618;28;20058;-76
2022/08/14 09:22:26;;;;;;;8.40;4.97;;;;;;;;;;4974308;28;20023;-79
2022/08/14 09:24:52;;;;;;;8.00;5.07;;;;;;;;;;4974143;28;20038;-77
2022/08/14 09:27:18;;;;;;;7.25;5.88;;;;;;;;;;4979255;28;20057;-79
2022/08/14 09:29:44;;;;;;;6.97;5.28;;;;;;;;;;4975717;28;20027;-78
2022/08/14 09:32:12;;;;;;;7.28;5.70;;;;;;;;;;4968554;28;20019;-77
2022/08/14 09:34:47;;;;;;;8.15;5.60;;;;;;;;;;4980056;28;20058;-78
2022/08/14 09:37:23;;;;;;;6.28;5.15;;;;;;;;;;4975301;28;20401;-77
2022/08/14 09:40:12;;;;;;;5.88;4.82;;;;;;;;;;4977214;28;20033;-78
2022/08/14 09:42:44;;;;;;;7.97;5.30;;;;;;;;;;4935664;28;20508;-79
2022/08/14 09:45:16;;;;;;;8.23;5.20;;;;;;;;;;4974725;28;20030;-77
2022/08/14 09:47:44;;;;;;;7.53;6.68;;;;;;;;;;4979554;28;20053;-77
2022/08/14 09:50:22;;;;;;;7.45;5.38;;;;;;;;;;4974436;28;20023;-79
2022/08/14 09:52:51;;;;;;;8.20;6.25;;;;;;;;;;4975262;28;20176;-79
2022/08/14 09:55:18;;;;;;;5.70;5.10;;;;;;;;;;4976460;28;20085;-78
2022/08/14 09:57:45;;;;;;;7.15;5.05;;;;;;;;;;4973035;28;20027;-77
2022/08/14 10:00:18;;;;;;;8.63;5.30;;;;;;;;;;4975282;28;20109;-78
2022/08/14 10:03:01;;;;;;;7.45;5.50;;;;;;;;;;4981760;28;20022;-77
2022/08/14 10:05:37;;;;;;;7.25;5.22;;;;;;;;;;4973302;28;20035;-78
2022/08/14 10:08:04;;;;;;;10.82;5.40;;;;;;;;;;4971128;28;20065;-77
2022/08/14 10:10:32;;;;;;;7.32;5.05;;;;;;;;;;4975579;28;20030;-79
2022/08/14 10:13:00;;;;;;;8.75;5.28;;;;;;;;;;4970509;28;20105;-78
2022/08/14 10:15:27;;;;;;;5.80;4.82;;;;;;;;;;4972846;28;20019;-77
2022/08/14 10:18:06;;;;;;;5.70;5.20;;;;;;;;;;4969992;28;20031;-78
2022/08/14 10:20:37;;;;;;;8.88;5.07;;;;;;;;;;4971782;28;20022;-78
2022/08/14 10:23:14;;;;;;;6.47;5.20;;;;;;;;;;4967320;28;20490;-78
2022/08/14 10:25:49;;;;;;;5.55;4.90;;;;;;;;;;4967749;28;20039;-77
2022/08/14 10:28:16;;;;;;;10.90;5.57;;;;;;;;;;4963606;28;20027;-80
2022/08/14 10:30:46;;;;;;;6.07;4.80;;;;;;;;;;4965133;28;20555;-78
2022/08/14 10:33:23;;;;;;;6.43;4.78;;;;;;;;;;4963736;28;20042;-78
2022/08/14 10:35:49;;;;;;;6.18;5.57;;;;;;;;;;4962180;28;20042;-78
2022/08/14 10:38:26;;;;;;;6.90;5.07;;;;;;;;;;4965835;28;20030;-78
2022/08/14 10:40:52;;;;;;;8.20;5.45;;;;;;;;;;4965413;28;20551;-78
2022/08/14 10:43:20;;;;;;;6.50;5.05;;;;;;;;;;4964230;28;20112;-76
2022/08/14 10:45:53;;;;;;;7.88;5.00;;;;;;;;;;4965955;28;20147;-78
2022/08/14 10:48:19;;;;;;;6.43;4.97;;;;;;;;;;4964878;28;20039;-78
2022/08/14 10:50:50;;;;;;;5.70;4.80;;;;;;;;;;4965943;28;20338;-78
2022/08/14 10:53:26;;;;;;;9.35;4.78;;;;;;;;;;4964876;28;20047;-78
2022/08/14 10:55:57;;;;;;;5.88;4.80;;;;;;;;;;4965424;28;20809;-77
2022/08/14 10:58:26;;;;;;;8.40;5.80;;;;;;;;;;4964986;28;20030;-78
2022/08/14 11:00:57;;;;;;;7.97;4.75;;;;;;;;;;4981107;28;20062;-78
2022/08/14 11:03:24;;;;;;;7.25;5.00;;;;;;;;;;4963890;28;20038;-78
2022/08/14 11:05:51;;;;;;;7.18;5.07;;;;;;;;;;4964104;28;20038;-78
2022/08/14 11:08:18;;;;;;;6.07;4.65;;;;;;;;;;4963990;28;20059;-77
2022/08/14 11:10:44;;;;;;;7.55;5.13;;;;;;;;;;4977013;28;20034;-78
2022/08/14 11:13:20;;;;;;;6.15;4.88;;;;;;;;;;4965680;28;20031;-77
2022/08/14 11:15:50;;;;;;;8.93;4.93;;;;;;;;;;4962806;28;20039;-77
2022/08/14 11:18:17;;;;;;;5.38;4.65;;;;;;;;;;4963911;28;20031;-78
2022/08/14 11:20:53;;;;;;;6.65;4.70;;;;;;;;;;4961483;28;20039;-77
2022/08/14 11:23:21;;;;;;;5.85;4.57;;;;;;;;;;4962423;28;20058;-78
2022/08/14 11:25:48;;;;;;;7.93;4.43;;;;;;;;;;4966558;28;20019;-77
2022/08/14 11:28:14;;;;;;;8.55;4.43;;;;;;;;;;4962775;28;20022;-77
2022/08/14 11:30:44;;;;;;;9.20;4.35;;;;;;;;;;4964440;28;20565;-77
2022/08/14 11:33:10;;;;;;;7.07;4.70;;;;;;;;;;4963030;28;20033;-77
2022/08/14 11:35:37;;;;;;;7.47;4.50;;;;;;;;;;4964920;28;20085;-78
2022/08/14 11:38:04;;;;;;;7.50;4.95;;;;;;;;;;4964105;28;20565;-78
2022/08/14 11:40:34;;;;;;;5.70;4.70;;;;;;;;;;4965529;28;20030;-78
2022/08/14 11:43:04;;;;;;;4.88;4.38;;;;;;;;;;4968122;28;20078;-78
2022/08/14 11:45:33;;;;;;;5.70;4.35;;;;;;;;;;4968432;28;20117;-78
2022/08/14 11:48:13;;;;;;;5.78;4.80;;;;;;;;;;4966963;28;20393;-77
2022/08/14 11:50:39;;;;;;;7.82;4.47;;;;;;;;;;4965903;28;20513;-77
2022/08/14 11:53:07;;;;;;;6.50;4.30;;;;;;;;;;4967594;28;20037;-78
2022/08/14 11:55:37;;;;;;;5.00;4.60;;;;;;;;;;4967819;28;20472;-78
2022/08/14 11:58:05;;;;;;;6.68;4.47;;;;;;;;;;4967160;28;20123;-78
2022/08/14 12:00:32;;;;;;;5.30;4.38;;;;;;;;;;4968681;28;20034;-79
2022/08/14 12:02:59;;;;;;;7.30;4.55;;;;;;;;;;4967559;28;20113;-79
2022/08/14 12:05:29;;;;;;;4.70;4.20;;;;;;;;;;4967870;28;20097;-78
2022/08/14 12:07:58;;;;;;;5.95;4.45;;;;;;;;;;4968342;28;20592;-78
2022/08/14 12:10:28;;;;;;;5.30;4.15;;;;;;;;;;4968358;28;20042;-77
2022/08/14 12:12:55;;;;;;;7.55;4.28;;;;;;;;;;4968851;28;20044;-77
2022/08/14 12:15:34;;;;;;;4.13;3.72;;;;;;;;;;4964441;28;20027;-77
2022/08/14 12:18:01;;;;;;;5.18;4.10;;;;;;;;;;4972005;28;20031;-78
2022/08/14 12:20:31;;;;;;;6.47;4.32;;;;;;;;;;4968779;28;20054;-78
2022/08/14 12:22:59;;;;;;;8.68;4.20;;;;;;;;;;4967632;28;20520;-78
2022/08/14 12:25:26;;;;;;;4.68;4.18;;;;;;;;;;4967777;28;20425;-79
2022/08/14 12:27:54;;;;;;;4.65;4.20;;;;;;;;;;4967766;28;20030;-79
2022/08/14 12:30:32;;;;;;;4.57;3.67;;;;;;;;;;4967474;28;20651;-79
2022/08/14 12:32:59;;;;;;;4.85;4.30;;;;;;;;;;4967858;28;20065;-78
2022/08/14 12:35:38;;;;;;;7.07;4.18;;;;;;;;;;4965915;28;20153;-79
2022/08/14 12:38:04;;;;;;;6.47;3.80;;;;;;;;;;4966901;28;20023;-78
2022/08/14 12:40:30;;;;;;;5.82;3.97;;;;;;;;;;4967593;28;20027;-78
2022/08/14 12:43:02;;;;;;;5.60;3.70;;;;;;;;;;4966124;28;20462;-78
2022/08/14 12:45:33;;;;;;;4.25;3.85;;;;;;;;;;4966423;28;20018;-78
2022/08/14 12:48:03;;;;;;;4.40;4.00;;;;;;;;;;4966024;28;20113;-78
2022/08/14 12:50:39;;;;;;;7.55;4.97;;;;;;;;;;4967143;28;20035;-78
2022/08/14 12:53:06;;;;;;;6.63;3.90;;;;;;;;;;4966904;28;20396;-77
2022/08/14 12:55:34;;;;;;;6.10;4.22;;;;;;;;;;4965506;28;20027;-78
2022/08/14 12:58:04;;;;;;;6.30;4.07;;;;;;;;;;4967015;28;20022;-78
2022/08/14 13:00:30;;;;;;;4.57;3.95;;;;;;;;;;4965287;28;20489;-76
2022/08/14 13:02:56;;;;;;;5.90;4.47;;;;;;;;;;4966660;28;20521;-77
2022/08/14 13:05:24;;;;;;;5.13;4.00;;;;;;;;;;4966265;28;20034;-78
2022/08/14 13:07:50;;;;;;;4.05;3.70;;;;;;;;;;4963891;28;20101;-77
2022/08/14 13:10:17;;;;;;;5.97;4.05;;;;;;;;;;4964735;28;20054;-77
2022/08/14 13:12:44;;;;;;;4.93;4.30;;;;;;;;;;4964806;28;20576;-79
2022/08/14 13:15:11;;;;;;;5.65;3.92;;;;;;;;;;4964800;28;20042;-77
2022/08/14 13:17:40;;;;;;;4.45;4.00;;;;;;;;;;4963773;28;20029;-78
2022/08/14 13:20:09;;;;;;;4.30;3.70;;;;;;;;;;4967389;28;20023;-77
2022/08/14 13:22:36;;;;;;;7.22;4.28;;;;;;;;;;4966194;28;20023;-76
2022/08/14 13:25:03;;;;;;;5.75;4.07;;;;;;;;;;4966437;28;20524;-77
2022/08/14 13:27:32;;;;;;;5.10;4.07;;;;;;;;;;4966720;28;20031;-77
2022/08/14 13:29:59;;;;;;;8.68;4.30;;;;;;;;;;4970016;28;20038;-79
2022/08/14 13:32:27;;;;;;;6.15;4.00;;;;;;;;;;4965500;28;20066;-78
2022/08/14 13:34:54;;;;;;;5.03;3.90;;;;;;;;;;4972658;28;20029;-78
2022/08/14 13:37:20;;;;;;;7.28;4.03;;;;;;;;;;4962919;28;20022;-78
2022/08/14 13:39:51;;;;;;;7.35;3.88;;;;;;;;;;4963776;28;20031;-78
2022/08/14 13:42:20;;;;;;;4.70;3.90;;;;;;;;;;4980575;28;20390;-78
2022/08/14 13:44:52;;;;;;;12.02;4.18;;;;;;;;;;4966199;28;20023;-78
2022/08/14 13:47:22;;;;;;;4.80;3.53;;;;;;;;;;4963486;28;20081;-78
2022/08/14 13:49:49;;;;;;;4.95;3.83;;;;;;;;;;4964582;28;20069;-79
2022/08/14 13:52:19;;;;;;;6.13;4.25;;;;;;;;;;4966536;28;20043;-77
2022/08/14 13:54:46;;;;;;;4.28;3.88;;;;;;;;;;4964256;28;20022;-78
2022/08/14 13:57:13;;;;;;;6.13;3.70;;;;;;;;;;4964604;28;20425;-78
2022/08/14 13:59:43;;;;;;;6.55;3.90;;;;;;;;;;4965232;28;20035;-80
2022/08/14 14:02:09;;;;;;;4.22;3.83;;;;;;;;;;4964995;28;20753;-80
2022/08/14 14:04:46;;;;;;;5.57;3.85;;;;;;;;;;4966436;28;20030;-78
2022/08/14 14:07:14;;;;;;;5.95;3.92;;;;;;;;;;4965908;28;20111;-78
2022/08/14 14:09:42;;;;;;;6.95;5.07;;;;;;;;;;4967825;28;20089;-79
2022/08/14 14:12:09;;;;;;;6.07;3.63;;;;;;;;;;4965846;28;20113;-79
2022/08/14 14:14:40;;;;;;;5.03;3.88;;;;;;;;;;4980391;28;20022;-80
2022/08/14 14:17:06;;;;;;;5.13;3.95;;;;;;;;;;4965188;28;20019;-81
2022/08/14 14:19:33;;;;;;;6.00;4.15;;;;;;;;;;4966984;28;20454;-81
2022/08/14 14:22:04;;;;;;;5.10;4.20;;;;;;;;;;4969403;28;20127;-79
2022/08/14 14:24:30;;;;;;;7.05;4.05;;;;;;;;;;4964941;28;20053;-79
2022/08/14 14:26:59;;;;;;;5.40;3.90;;;;;;;;;;4966127;28;20498;-82
2022/08/14 14:29:25;;;;;;;4.47;4.07;;;;;;;;;;4965635;28;20038;-81
2022/08/14 14:31:51;;;;;;;6.15;4.43;;;;;;;;;;4968553;28;20050;-83
2022/08/14 14:34:21;;;;;;;5.60;4.10;;;;;;;;;;4965506;28;20482;-79
2022/08/14 14:36:49;;;;;;;5.07;4.43;;;;;;;;;;4964884;28;20026;-80
2022/08/14 14:39:16;;;;;;;6.88;4.13;;;;;;;;;;4965308;28;20038;-81
2022/08/14 14:41:42;;;;;;;5.15;4.07;;;;;;;;;;4969320;28;20090;-80
2022/08/14 14:44:10;;;;;;;7.55;4.25;;;;;;;;;;4970323;28;20500;-82
2022/08/14 14:46:37;;;;;;;6.45;3.63;;;;;;;;;;4967638;28;20186;-81
2022/08/14 14:49:05;;;;;;;6.85;4.28;;;;;;;;;;4970933;28;20090;-80
2022/08/14 14:51:31;;;;;;;5.97;4.25;;;;;;;;;;4968156;28;20050;-79
2022/08/14 14:53:57;;;;;;;7.80;5.07;;;;;;;;;;4971498;28;20027;-83
2022/08/14 14:56:24;;;;;;;4.75;4.03;;;;;;;;;;4965694;28;20069;-82
2022/08/14 14:58:50;;;;;;;6.22;4.47;;;;;;;;;;4967681;28;20053;-81